createdAt,value
2019-04-30T00:01:37.105Z,88.64
2019-04-30T00:03:50.444Z,88.29
2019-04-30T00:05:59.594Z,88.65
2019-04-30T00:08:07.524Z,88.60
2019-04-30T00:10:16.125Z,89.34
2019-04-30T00:12:25.722Z,88.90
2019-04-30T00:14:38.562Z,89.01
2019-04-30T00:16:45.105Z,88.83
2019-04-30T00:18:59.814Z,88.87
2019-04-30T00:21:05.279Z,88.92
2019-04-30T00:23:13.030Z,88.93
2019-04-30T00:25:27.021Z,88.61
2019-04-30T00:27:31.171Z,88.40
2019-04-30T00:29:39.701Z,88.45
2019-04-30T00:31:47.759Z,88.70
2019-04-30T00:33:57.912Z,88.25
2019-04-30T00:36:05.623Z,88.51
2019-04-30T00:38:15.105Z,88.61
2019-04-30T00:40:26.700Z,88.79
2019-04-30T00:42:33.648Z,88.37
2019-04-30T00:44:41.671Z,88.51
2019-04-30T00:46:49.543Z,88.70
2019-04-30T00:49:08.772Z,88.18
2019-04-30T00:51:14.078Z,88.58
2019-04-30T00:53:17.603Z,88.38
2019-04-30T00:55:25.487Z,88.28
2019-04-30T00:57:37.374Z,88.38
2019-04-30T00:59:46.520Z,88.00
2019-04-30T01:02:12.300Z,87.90
2019-04-30T01:04:36.921Z,87.51
2019-04-30T01:06:46.183Z,86.79
2019-04-30T01:08:58.296Z,87.06
2019-04-30T01:11:09.416Z,87.62
2019-04-30T01:13:14.647Z,86.96
2019-04-30T01:15:23.598Z,87.58
2019-04-30T01:17:31.846Z,87.35
2019-04-30T01:19:40.400Z,87.41
2019-04-30T01:21:50.795Z,86.67
2019-04-30T01:23:59.095Z,86.63
2019-04-30T01:26:08.775Z,87.04
2019-04-30T01:28:23.122Z,86.84
2019-04-30T01:30:28.494Z,86.78
2019-04-30T01:32:37.065Z,86.00
2019-04-30T01:34:49.972Z,85.95
2019-04-30T01:36:54.468Z,85.91
2019-04-30T01:39:02.425Z,86.15
2019-04-30T01:41:11.036Z,86.39
2019-04-30T01:43:30.501Z,85.87
2019-04-30T01:45:31.691Z,86.56
2019-04-30T01:47:39.795Z,86.96
2019-04-30T01:49:49.578Z,87.12
2019-04-30T01:52:00.489Z,87.08
2019-04-30T01:54:07.102Z,87.07
2019-04-30T01:56:19.715Z,86.58
2019-04-30T01:58:30.171Z,86.74
2019-04-30T02:00:50.461Z,87.15
2019-04-30T02:02:59.249Z,87.31
2019-04-30T02:05:08.909Z,87.07
2019-04-30T02:07:19.086Z,87.00
2019-04-30T02:09:28.657Z,87.31
2019-04-30T02:11:36.572Z,86.93
2019-04-30T02:13:44.461Z,87.12
2019-04-30T02:15:52.344Z,87.38
2019-04-30T02:18:00.288Z,87.45
2019-04-30T02:20:09.039Z,87.66
2019-04-30T02:22:18.844Z,88.11
2019-04-30T02:24:28.751Z,87.63
2019-04-30T02:26:38.502Z,87.64
2019-04-30T02:28:46.640Z,87.69
2019-04-30T02:30:54.729Z,87.98
2019-04-30T02:33:03.460Z,88.02
2019-04-30T02:35:19.290Z,88.84
2019-04-30T02:37:29.969Z,88.76
2019-04-30T02:39:40.162Z,88.12
2019-04-30T02:41:50.631Z,88.34
2019-04-30T02:43:59.877Z,88.37
2019-04-30T02:46:09.629Z,88.52
2019-04-30T02:48:20.637Z,88.22
2019-04-30T02:50:29.766Z,88.08
2019-04-30T02:52:40.187Z,87.45
2019-04-30T02:54:51.451Z,87.81
2019-04-30T02:57:00.895Z,87.85
2019-04-30T02:59:10.379Z,87.40
2019-04-30T03:01:20.240Z,87.19
2019-04-30T03:03:29.956Z,87.35
2019-04-30T03:05:39.224Z,87.65
2019-04-30T03:07:52.965Z,87.71
2019-04-30T03:09:59.585Z,87.26
2019-04-30T03:12:08.679Z,87.41
2019-04-30T03:14:16.940Z,87.26
2019-04-30T03:16:32.193Z,86.96
2019-04-30T03:18:49.947Z,87.08
2019-04-30T03:21:11.753Z,86.86
2019-04-30T03:23:19.714Z,86.85
2019-04-30T03:25:29.812Z,86.42
2019-04-30T03:27:42.219Z,87.18
2019-04-30T03:29:46.651Z,87.63
2019-04-30T03:31:55.226Z,88.03
2019-04-30T03:34:04.446Z,87.38
2019-04-30T03:36:13.112Z,87.14
2019-04-30T03:38:21.142Z,87.34
2019-04-30T03:40:30.271Z,87.54
2019-04-30T03:42:39.719Z,87.77
2019-04-30T03:44:49.634Z,88.38
2019-04-30T03:46:59.268Z,87.83
2019-04-30T03:49:06.808Z,87.73
2019-04-30T03:51:15.751Z,87.67
2019-04-30T03:53:23.581Z,87.42
2019-04-30T03:55:31.375Z,87.46
2019-04-30T03:57:39.950Z,87.50
2019-04-30T03:59:49.970Z,87.48
2019-04-30T04:02:05.096Z,87.19
2019-04-30T04:04:26.597Z,87.34
2019-04-30T04:06:39.577Z,87.18
2019-04-30T04:08:50.441Z,87.43
2019-04-30T04:11:00.625Z,86.88
2019-04-30T04:13:10.362Z,86.76
2019-04-30T04:15:19.900Z,85.86
2019-04-30T04:17:27.654Z,86.40
2019-04-30T04:19:35.606Z,86.46
2019-04-30T04:21:44.535Z,86.67
2019-04-30T04:23:52.387Z,86.58
2019-04-30T04:26:00.240Z,86.54
2019-04-30T04:28:10.112Z,86.63
2019-04-30T04:30:20.376Z,86.27
2019-04-30T04:32:30.895Z,86.70
2019-04-30T04:34:39.918Z,86.59
2019-04-30T04:36:50.528Z,86.61
2019-04-30T04:38:59.932Z,86.48
2019-04-30T04:41:10.082Z,86.79
2019-04-30T04:43:17.177Z,86.31
2019-04-30T04:45:25.282Z,86.62
2019-04-30T04:47:33.070Z,87.31
2019-04-30T04:49:41.068Z,87.02
2019-04-30T04:51:49.377Z,87.75
2019-04-30T04:54:00.094Z,87.59
2019-04-30T04:56:07.222Z,87.29
2019-04-30T04:58:15.130Z,87.16
2019-04-30T05:00:23.150Z,87.20
2019-04-30T05:02:36.774Z,87.04
2019-04-30T05:04:44.718Z,86.65
2019-04-30T05:06:52.722Z,86.87
2019-04-30T05:09:01.690Z,87.56
2019-04-30T05:11:09.771Z,87.29
2019-04-30T05:13:19.231Z,87.73
2019-04-30T05:15:29.354Z,86.91
2019-04-30T05:17:37.070Z,87.80
2019-04-30T05:19:44.961Z,87.90
2019-04-30T05:21:52.853Z,88.36
2019-04-30T05:24:01.921Z,87.55
2019-04-30T05:26:11.146Z,87.59
2019-04-30T05:28:20.003Z,87.52
2019-04-30T05:30:29.503Z,86.80
2019-04-30T05:32:39.064Z,88.04
2019-04-30T05:34:47.449Z,87.51
2019-04-30T05:36:55.453Z,88.26
2019-04-30T05:39:03.704Z,88.15
2019-04-30T05:41:11.839Z,87.40
2019-04-30T05:43:20.075Z,87.33
2019-04-30T05:45:29.212Z,87.74
2019-04-30T05:47:38.864Z,88.00
2019-04-30T05:49:48.745Z,87.85
2019-04-30T05:51:56.724Z,88.07
2019-04-30T05:54:04.511Z,87.24
2019-04-30T05:56:12.433Z,86.57
2019-04-30T05:58:20.215Z,86.40
2019-04-30T06:00:30.270Z,85.97
2019-04-30T06:02:39.717Z,85.73
2019-04-30T06:04:48.912Z,85.91
2019-04-30T06:06:58.696Z,85.99
2019-04-30T06:09:18.751Z,86.17
2019-04-30T06:11:41.842Z,86.07
2019-04-30T06:14:08.678Z,86.00
2019-04-30T06:16:18.887Z,85.79
2019-04-30T06:18:28.613Z,86.24
2019-04-30T06:20:36.454Z,85.85
2019-04-30T06:22:44.812Z,85.67
2019-04-30T06:24:52.598Z,85.85
2019-04-30T06:27:00.887Z,85.70
2019-04-30T06:29:09.246Z,84.93
2019-04-30T06:31:22.284Z,85.39
2019-04-30T06:33:29.120Z,85.44
2019-04-30T06:35:39.056Z,83.74
2019-04-30T06:37:49.708Z,84.67
2019-04-30T06:39:59.153Z,83.35
2019-04-30T06:42:12.462Z,83.65
2019-04-30T06:44:19.464Z,83.61
2019-04-30T06:46:28.660Z,83.89
2019-04-30T06:48:36.903Z,83.54
2019-04-30T06:50:44.854Z,83.48
2019-04-30T06:52:58.656Z,83.61
2019-04-30T06:55:05.519Z,83.22
2019-04-30T06:57:13.307Z,82.99
2019-04-30T06:59:21.294Z,82.96
2019-04-30T07:01:29.418Z,83.08
2019-04-30T07:03:38.850Z,82.97
2019-04-30T07:05:48.618Z,82.12
2019-04-30T07:08:13.724Z,81.47
2019-04-30T07:10:23.558Z,82.37
2019-04-30T07:12:42.506Z,81.89
2019-04-30T07:14:50.725Z,80.92
2019-04-30T07:16:59.446Z,81.75
2019-04-30T07:19:09.318Z,81.85
2019-04-30T07:21:19.844Z,81.85
2019-04-30T07:23:28.818Z,81.01
2019-04-30T07:25:39.090Z,81.05
2019-04-30T07:27:49.864Z,79.88
2019-04-30T07:29:56.950Z,80.68
2019-04-30T07:32:05.815Z,80.08
2019-04-30T07:34:13.867Z,79.31
2019-04-30T07:36:21.731Z,79.28
2019-04-30T07:38:29.614Z,79.35
2019-04-30T07:40:39.051Z,80.77
2019-04-30T07:42:49.036Z,81.40
2019-04-30T07:44:56.944Z,79.96
2019-04-30T07:47:05.397Z,79.76
2019-04-30T07:49:13.660Z,80.11
2019-04-30T07:51:22.843Z,80.54
2019-04-30T07:53:31.498Z,79.64
2019-04-30T07:55:39.506Z,78.81
2019-04-30T07:57:50.620Z,79.64
2019-04-30T07:59:57.220Z,77.12
2019-04-30T08:02:13.703Z,77.65
2019-04-30T08:04:32.612Z,78.87
2019-04-30T08:06:41.111Z,78.51
2019-04-30T08:08:50.529Z,76.22
2019-04-30T08:10:59.539Z,77.49
2019-04-30T08:13:13.774Z,78.21
2019-04-30T08:15:19.804Z,78.32
2019-04-30T08:17:28.908Z,79.12
2019-04-30T08:19:38.458Z,76.55
2019-04-30T08:21:48.594Z,78.89
2019-04-30T08:23:57.004Z,75.64
2019-04-30T08:26:05.473Z,77.83
2019-04-30T08:28:13.660Z,77.26
2019-04-30T08:30:26.714Z,77.26
2019-04-30T08:32:31.647Z,78.01
2019-04-30T08:34:39.562Z,79.16
2019-04-30T08:36:48.884Z,78.73
2019-04-30T08:38:57.125Z,78.65
2019-04-30T08:41:05.848Z,78.79
2019-04-30T08:43:13.734Z,79.16
2019-04-30T08:45:22.962Z,78.31
2019-04-30T08:47:31.988Z,79.14
2019-04-30T08:49:41.553Z,78.85
2019-04-30T08:51:50.051Z,78.44
2019-04-30T08:53:58.796Z,77.81
2019-04-30T08:56:06.969Z,75.79
2019-04-30T08:58:15.332Z,77.00
2019-04-30T09:00:23.808Z,75.26
2019-04-30T09:02:31.726Z,76.82
2019-04-30T09:04:39.647Z,76.13
2019-04-30T09:06:49.027Z,76.86
2019-04-30T09:08:59.277Z,74.37
2019-04-30T09:11:20.149Z,77.24
2019-04-30T09:13:19.066Z,74.33
2019-04-30T09:15:29.073Z,77.39
2019-04-30T09:17:38.579Z,77.32
2019-04-30T09:19:46.583Z,76.26
2019-04-30T09:21:54.716Z,74.42
2019-04-30T09:24:02.744Z,75.53
2019-04-30T09:26:11.633Z,73.13
2019-04-30T09:28:19.950Z,75.46
2019-04-30T09:30:29.943Z,77.04
2019-04-30T09:32:38.994Z,74.40
2019-04-30T09:34:48.724Z,73.68
2019-04-30T09:36:58.703Z,75.24
2019-04-30T09:39:08.941Z,74.55
2019-04-30T09:41:19.270Z,76.08
2019-04-30T09:43:28.636Z,74.17
2019-04-30T09:45:38.426Z,76.14
2019-04-30T09:47:47.789Z,74.10
2019-04-30T09:49:55.609Z,73.35
2019-04-30T09:52:03.558Z,76.33
2019-04-30T09:54:12.701Z,75.06
2019-04-30T09:56:21.356Z,74.33
2019-04-30T09:58:30.025Z,73.61
2019-04-30T10:00:39.274Z,71.92
2019-04-30T10:02:48.887Z,73.88
2019-04-30T10:04:57.657Z,74.39
2019-04-30T10:07:06.291Z,75.85
2019-04-30T10:09:15.492Z,75.54
2019-04-30T10:11:29.412Z,73.08
2019-04-30T10:13:37.273Z,76.28
2019-04-30T10:16:00.158Z,76.14
2019-04-30T10:18:09.078Z,74.08
2019-04-30T10:20:19.047Z,75.12
2019-04-30T10:22:26.962Z,73.52
2019-04-30T10:24:35.232Z,74.53
2019-04-30T10:26:43.088Z,74.54
2019-04-30T10:28:52.692Z,74.07
2019-04-30T10:31:00.649Z,74.03
2019-04-30T10:33:09.973Z,73.23
2019-04-30T10:35:18.322Z,74.18
2019-04-30T10:37:28.770Z,74.73
2019-04-30T10:39:38.932Z,74.64
2019-04-30T10:41:49.205Z,75.62
2019-04-30T10:43:58.981Z,75.90
2019-04-30T10:46:06.745Z,70.25
2019-04-30T10:48:14.653Z,74.04
2019-04-30T10:50:24.116Z,71.22
2019-04-30T10:52:31.985Z,73.62
2019-04-30T10:54:39.791Z,75.48
2019-04-30T10:56:49.036Z,74.71
2019-04-30T10:58:58.667Z,74.95
2019-04-30T11:01:06.887Z,73.84
2019-04-30T11:03:20.088Z,73.34
2019-04-30T11:05:24.476Z,73.28
2019-04-30T11:07:32.303Z,69.58
2019-04-30T11:09:40.257Z,75.29
2019-04-30T11:11:49.710Z,76.12
2019-04-30T11:13:57.814Z,75.24
2019-04-30T11:16:12.670Z,75.12
2019-04-30T11:18:15.719Z,73.57
2019-04-30T11:20:23.956Z,73.39
2019-04-30T11:22:32.408Z,67.88
2019-04-30T11:24:57.615Z,69.39
2019-04-30T11:26:51.736Z,71.85
2019-04-30T11:29:00.283Z,72.01
2019-04-30T11:31:23.704Z,72.21
2019-04-30T11:33:32.032Z,70.04
2019-04-30T11:35:40.089Z,70.81
2019-04-30T11:37:47.984Z,71.76
2019-04-30T11:39:55.965Z,70.64
2019-04-30T11:42:04.957Z,70.58
2019-04-30T11:44:12.992Z,69.06
2019-04-30T11:46:28.778Z,70.74
2019-04-30T11:48:38.722Z,72.87
2019-04-30T11:50:47.009Z,73.27
2019-04-30T11:53:09.626Z,68.19
2019-04-30T11:55:09.671Z,68.37
2019-04-30T11:57:18.698Z,70.79
2019-04-30T11:59:26.770Z,69.68
2019-04-30T12:01:35.987Z,70.19
2019-04-30T12:03:44.229Z,69.38
2019-04-30T12:05:52.106Z,70.03
2019-04-30T12:08:04.531Z,69.91
2019-04-30T12:10:20.345Z,71.23
2019-04-30T12:12:28.922Z,69.62
2019-04-30T12:14:36.826Z,69.17
2019-04-30T12:16:44.617Z,70.24
2019-04-30T12:18:52.737Z,66.78
2019-04-30T12:21:00.705Z,69.12
2019-04-30T12:23:11.743Z,69.36
2019-04-30T12:25:19.209Z,68.48
2019-04-30T12:27:28.774Z,68.26
2019-04-30T12:29:36.839Z,66.88
2019-04-30T12:31:44.760Z,67.79
2019-04-30T12:33:52.894Z,67.58
2019-04-30T12:36:00.746Z,65.76
2019-04-30T12:38:08.876Z,65.56
2019-04-30T12:40:26.609Z,65.01
2019-04-30T12:42:28.698Z,66.56
2019-04-30T12:44:39.898Z,64.30
2019-04-30T12:46:48.523Z,63.43
2019-04-30T12:49:05.108Z,67.26
2019-04-30T12:51:31.134Z,63.68
2019-04-30T12:53:46.600Z,62.08
2019-04-30T12:56:00.368Z,66.60
2019-04-30T12:58:09.773Z,64.59
2019-04-30T13:00:19.523Z,63.97
2019-04-30T13:02:29.031Z,63.16
2019-04-30T13:04:39.239Z,61.43
2019-04-30T13:06:49.108Z,61.75
2019-04-30T13:08:59.937Z,61.53
2019-04-30T13:11:07.671Z,61.36
2019-04-30T13:13:17.953Z,61.93
2019-04-30T13:15:26.030Z,64.06
2019-04-30T13:17:33.946Z,63.20
2019-04-30T13:19:41.886Z,63.62
2019-04-30T13:21:49.666Z,64.71
2019-04-30T13:23:57.652Z,64.06
2019-04-30T13:26:05.600Z,67.80
2019-04-30T13:28:15.270Z,64.55
2019-04-30T13:30:29.650Z,67.32
2019-04-30T13:32:41.554Z,66.57
2019-04-30T13:34:51.489Z,67.87
2019-04-30T13:36:59.459Z,64.75
2019-04-30T13:39:12.120Z,65.46
2019-04-30T13:41:21.987Z,68.06
2019-04-30T13:43:48.759Z,68.04
2019-04-30T13:45:58.191Z,65.28
2019-04-30T13:48:08.952Z,66.56
2019-04-30T13:50:19.683Z,65.33
2019-04-30T13:52:30.939Z,66.31
2019-04-30T13:54:39.584Z,66.12
2019-04-30T13:56:49.287Z,68.27
2019-04-30T13:58:57.235Z,68.17
2019-04-30T14:01:06.158Z,70.20
2019-04-30T14:03:19.192Z,64.37
2019-04-30T14:05:28.294Z,68.63
2019-04-30T14:07:46.533Z,64.21
2019-04-30T14:09:54.407Z,62.56
2019-04-30T14:12:02.308Z,67.44
2019-04-30T14:14:10.196Z,67.80
2019-04-30T14:16:18.417Z,68.13
2019-04-30T14:18:30.958Z,69.62
2019-04-30T14:20:36.311Z,69.23
2019-04-30T14:22:44.201Z,68.45
2019-04-30T14:24:52.000Z,69.39
2019-04-30T14:26:59.788Z,66.05
2019-04-30T14:29:09.032Z,64.31
2019-04-30T14:31:18.673Z,68.73
2019-04-30T14:33:29.348Z,66.27
2019-04-30T14:35:38.624Z,69.46
2019-04-30T14:37:49.573Z,68.44
2019-04-30T14:39:57.606Z,69.05
2019-04-30T14:42:07.017Z,65.27
2019-04-30T14:44:18.573Z,69.00
2019-04-30T14:46:29.910Z,66.88
2019-04-30T14:48:43.340Z,65.68
2019-04-30T14:50:51.639Z,65.32
2019-04-30T14:53:05.370Z,64.74
2019-04-30T14:55:31.236Z,65.29
2019-04-30T14:57:43.763Z,65.15
2019-04-30T15:00:10.436Z,64.01
2019-04-30T15:02:22.971Z,66.84
2019-04-30T15:04:30.835Z,67.30
2019-04-30T15:06:38.871Z,65.24
2019-04-30T15:08:46.702Z,66.65
2019-04-30T15:10:54.601Z,66.46
2019-04-30T15:13:02.748Z,64.73
2019-04-30T15:15:10.983Z,63.44
2019-04-30T15:17:18.770Z,62.79
2019-04-30T15:19:26.624Z,61.26
2019-04-30T15:21:34.640Z,61.50
2019-04-30T15:24:01.677Z,60.90
2019-04-30T15:26:21.692Z,65.68
2019-04-30T15:28:19.321Z,66.13
2019-04-30T15:30:28.886Z,65.76
2019-04-30T15:32:39.555Z,64.65
2019-04-30T15:34:49.050Z,63.16
2019-04-30T15:36:59.021Z,66.48
2019-04-30T15:39:09.943Z,63.54
2019-04-30T15:41:19.090Z,65.16
2019-04-30T15:43:27.255Z,62.14
2019-04-30T15:45:36.107Z,64.33
2019-04-30T15:47:43.942Z,60.30
2019-04-30T15:49:52.202Z,59.67
2019-04-30T15:52:00.101Z,60.57
2019-04-30T15:54:09.163Z,59.80
2019-04-30T15:56:19.177Z,62.54
2019-04-30T15:58:28.961Z,62.02
2019-04-30T16:00:39.372Z,62.68
2019-04-30T16:02:56.890Z,59.11
2019-04-30T16:04:59.907Z,62.52
2019-04-30T16:07:08.542Z,66.20
2019-04-30T16:09:35.583Z,64.14
2019-04-30T16:11:54.187Z,63.85
2019-04-30T16:14:19.647Z,62.16
2019-04-30T16:16:29.186Z,59.28
2019-04-30T16:18:44.622Z,64.66
2019-04-30T16:20:54.136Z,65.81
2019-04-30T16:23:03.082Z,67.17
2019-04-30T16:25:11.120Z,61.72
2019-04-30T16:27:19.267Z,64.75
2019-04-30T16:29:27.306Z,64.29
2019-04-30T16:31:35.200Z,63.61
2019-04-30T16:33:43.506Z,65.00
2019-04-30T16:35:51.368Z,63.84
2019-04-30T16:37:59.480Z,60.89
2019-04-30T16:40:08.290Z,63.19
2019-04-30T16:42:19.031Z,65.04
2019-04-30T16:44:27.348Z,66.12
2019-04-30T16:46:35.761Z,66.41
2019-04-30T16:48:43.666Z,66.67
2019-04-30T16:50:52.896Z,63.67
2019-04-30T16:53:00.836Z,65.29
2019-04-30T16:55:09.337Z,63.71
2019-04-30T16:57:18.215Z,61.96
2019-04-30T16:59:30.837Z,65.92
2019-04-30T17:01:39.249Z,68.07
2019-04-30T17:03:50.511Z,68.94
2019-04-30T17:06:16.712Z,69.61
2019-04-30T17:08:32.235Z,69.12
2019-04-30T17:10:53.665Z,69.31
2019-04-30T17:13:09.542Z,69.92
2019-04-30T17:15:22.001Z,69.23
2019-04-30T17:17:30.379Z,68.71
2019-04-30T17:19:39.349Z,70.18
2019-04-30T17:21:47.591Z,72.00
2019-04-30T17:23:56.040Z,69.82
2019-04-30T17:26:04.078Z,69.27
2019-04-30T17:28:11.969Z,69.28
2019-04-30T17:30:20.814Z,68.73
2019-04-30T17:32:28.792Z,68.09
2019-04-30T17:34:38.840Z,67.79
2019-04-30T17:36:46.419Z,68.70
2019-04-30T17:38:55.418Z,70.71
2019-04-30T17:41:03.281Z,71.28
2019-04-30T17:43:12.165Z,71.93
2019-04-30T17:45:20.610Z,70.68
2019-04-30T17:47:29.459Z,71.32
2019-04-30T17:49:37.343Z,72.74
2019-04-30T17:51:45.395Z,72.41
2019-04-30T17:54:11.292Z,73.42
2019-04-30T17:56:19.328Z,70.34
2019-04-30T17:58:27.248Z,72.43
2019-04-30T18:00:38.827Z,72.22
2019-04-30T18:02:47.200Z,71.21
2019-04-30T18:04:55.419Z,71.61
2019-04-30T18:07:03.881Z,67.41
2019-04-30T18:09:11.913Z,72.78
2019-04-30T18:11:20.139Z,71.68
2019-04-30T18:13:28.308Z,72.69
2019-04-30T18:15:36.172Z,73.13
2019-04-30T18:17:45.803Z,74.74
2019-04-30T18:19:58.476Z,73.94
2019-04-30T18:22:10.755Z,74.51
2019-04-30T18:24:29.519Z,72.24
2019-04-30T18:26:39.145Z,73.01
2019-04-30T18:28:47.342Z,70.43
2019-04-30T18:30:55.543Z,69.68
2019-04-30T18:33:04.119Z,70.56
2019-04-30T18:35:12.155Z,70.95
2019-04-30T18:37:20.492Z,71.56
2019-04-30T18:39:28.894Z,72.11
2019-04-30T18:41:36.991Z,72.68
2019-04-30T18:43:45.452Z,73.65
2019-04-30T18:45:54.389Z,74.02
2019-04-30T18:48:03.041Z,75.21
2019-04-30T18:50:11.193Z,74.77
2019-04-30T18:52:19.170Z,74.91
2019-04-30T18:54:28.956Z,76.38
2019-04-30T18:56:36.653Z,73.91
2019-04-30T18:58:44.549Z,74.68
2019-04-30T19:00:52.695Z,75.11
2019-04-30T19:03:00.580Z,74.33
2019-04-30T19:05:10.266Z,73.07
2019-04-30T19:07:33.205Z,75.16
2019-04-30T19:09:45.903Z,75.56
2019-04-30T19:12:01.045Z,76.11
2019-04-30T19:14:19.615Z,76.17
2019-04-30T19:16:45.503Z,75.92
2019-04-30T19:19:09.428Z,78.45
2019-04-30T19:21:17.878Z,77.14
2019-04-30T19:23:25.817Z,77.17
2019-04-30T19:25:33.712Z,75.62
2019-04-30T19:27:41.704Z,77.35
2019-04-30T19:29:51.739Z,77.28
2019-04-30T19:31:59.469Z,77.61
2019-04-30T19:34:09.658Z,78.85
2019-04-30T19:36:20.325Z,79.93
2019-04-30T19:38:27.734Z,80.45
2019-04-30T19:40:35.613Z,80.48
2019-04-30T19:42:44.545Z,80.44
2019-04-30T19:44:58.986Z,80.08
2019-04-30T19:47:02.049Z,80.62
2019-04-30T19:49:10.018Z,80.62
2019-04-30T19:51:19.775Z,80.55
2019-04-30T19:53:30.241Z,80.49
2019-04-30T19:55:39.348Z,80.60
2019-04-30T19:57:48.436Z,80.66
2019-04-30T19:59:58.660Z,80.70
2019-04-30T20:02:06.910Z,80.80
2019-04-30T20:04:14.820Z,81.05
2019-04-30T20:06:25.521Z,81.33
2019-04-30T20:08:33.572Z,76.96
2019-04-30T20:10:41.372Z,76.44
2019-04-30T20:12:49.896Z,76.79
2019-04-30T20:14:57.939Z,77.24
2019-04-30T20:17:06.050Z,78.16
2019-04-30T20:19:14.053Z,78.45
2019-04-30T20:21:28.556Z,78.43
2019-04-30T20:23:33.386Z,78.09
2019-04-30T20:25:41.448Z,77.89
2019-04-30T20:27:49.608Z,78.15
2019-04-30T20:29:59.233Z,78.70
2019-04-30T20:32:08.652Z,79.31
2019-04-30T20:34:19.038Z,80.06
2019-04-30T20:36:28.832Z,79.80
2019-04-30T20:38:41.386Z,80.17
2019-04-30T20:40:59.361Z,80.70
2019-04-30T20:43:01.121Z,80.26
2019-04-30T20:45:12.022Z,80.26
2019-04-30T20:47:21.037Z,80.86
2019-04-30T20:49:30.118Z,80.04
2019-04-30T20:51:40.185Z,80.11
2019-04-30T20:53:49.175Z,79.78
2019-04-30T20:55:59.203Z,80.21
2019-04-30T20:58:09.335Z,80.46
2019-04-30T21:00:17.822Z,81.03
2019-04-30T21:02:28.575Z,79.49
2019-04-30T21:04:36.173Z,80.36
2019-04-30T21:06:44.407Z,80.95
2019-04-30T21:08:52.304Z,80.24
2019-04-30T21:11:00.352Z,80.54
2019-04-30T21:13:10.918Z,81.09
2019-04-30T21:15:19.675Z,82.10
2019-04-30T21:17:27.701Z,82.40
2019-04-30T21:19:35.530Z,80.95
2019-04-30T21:21:43.520Z,80.33
2019-04-30T21:23:51.382Z,80.48
2019-04-30T21:25:59.220Z,80.75
2019-04-30T21:28:07.156Z,80.85
2019-04-30T21:30:15.245Z,81.25
2019-04-30T21:32:24.886Z,81.54
2019-04-30T21:34:34.454Z,81.34
2019-04-30T21:36:42.720Z,80.29
2019-04-30T21:38:51.019Z,80.32
2019-04-30T21:41:01.243Z,81.31
2019-04-30T21:43:08.686Z,80.89
2019-04-30T21:45:16.916Z,80.64
2019-04-30T21:47:24.745Z,81.71
2019-04-30T21:49:33.919Z,81.44
2019-04-30T21:51:41.903Z,81.47
2019-04-30T21:53:50.429Z,80.91
2019-04-30T21:55:58.474Z,81.99
2019-04-30T21:58:06.380Z,81.04
2019-04-30T22:00:18.534Z,80.79
2019-04-30T22:02:28.055Z,81.54
2019-04-30T22:04:36.193Z,81.84
2019-04-30T22:06:44.192Z,82.19
2019-04-30T22:08:52.303Z,82.55
2019-04-30T22:11:00.383Z,82.69
2019-04-30T22:13:08.912Z,83.18
2019-04-30T22:15:17.230Z,83.09
2019-04-30T22:17:25.116Z,83.63
2019-04-30T22:19:33.006Z,83.57
2019-04-30T22:21:41.179Z,83.18
2019-04-30T22:23:49.413Z,82.46
2019-04-30T22:25:57.283Z,82.23
2019-04-30T22:28:06.151Z,81.83
2019-04-30T22:30:14.807Z,81.97
2019-04-30T22:32:22.894Z,82.29
2019-04-30T22:34:30.669Z,83.49
2019-04-30T22:36:40.158Z,83.96
2019-04-30T22:38:49.249Z,84.24
2019-04-30T22:40:58.887Z,84.44
2019-04-30T22:43:09.229Z,84.09
2019-04-30T22:45:19.595Z,84.08
2019-04-30T22:47:27.387Z,83.45
2019-04-30T22:49:36.202Z,83.66
2019-04-30T22:51:43.993Z,83.72
2019-04-30T22:53:51.775Z,84.30
2019-04-30T22:55:59.682Z,84.52
2019-04-30T22:58:07.562Z,84.07
2019-04-30T23:00:17.825Z,83.82
2019-04-30T23:02:33.422Z,83.62
2019-04-30T23:04:51.821Z,84.02
2019-04-30T23:06:59.895Z,83.96
2019-04-30T23:09:11.384Z,84.40
2019-04-30T23:11:19.261Z,83.31
2019-04-30T23:13:27.341Z,83.46
2019-04-30T23:15:35.490Z,84.42
2019-04-30T23:17:43.414Z,84.57
2019-04-30T23:19:51.466Z,84.68
2019-04-30T23:21:59.477Z,86.02
2019-04-30T23:24:08.227Z,85.74
2019-04-30T23:26:16.002Z,85.81
2019-04-30T23:28:24.164Z,85.63
2019-04-30T23:30:32.079Z,85.53
2019-04-30T23:32:40.052Z,85.62
2019-04-30T23:34:48.958Z,85.61
2019-04-30T23:36:56.827Z,85.99
2019-04-30T23:39:05.945Z,86.11
2019-04-30T23:41:14.184Z,85.92
2019-04-30T23:43:22.560Z,85.93
2019-04-30T23:45:30.437Z,86.23
2019-04-30T23:47:38.411Z,86.43
2019-04-30T23:49:47.146Z,86.13
2019-04-30T23:51:55.102Z,85.82
2019-04-30T23:54:02.909Z,85.82
2019-04-30T23:56:10.859Z,86.23
2019-04-30T23:58:19.142Z,86.07
